createdAt,value
2022-12-24T00:01:04.307Z,11.40
2022-12-24T00:03:31.390Z,11.50
2022-12-24T00:05:58.593Z,11.40
2022-12-24T00:08:25.686Z,11.30
2022-12-24T00:10:54.120Z,11.30
2022-12-24T00:13:21.380Z,11.20
2022-12-24T00:15:49.088Z,11.10
2022-12-24T00:18:16.120Z,11.10
2022-12-24T00:20:48.898Z,11.20
2022-12-24T00:23:16.448Z,11.20
2022-12-24T00:25:43.900Z,11.10
2022-12-24T00:28:11.418Z,11.00
2022-12-24T00:30:39.951Z,11.00
2022-12-24T00:33:06.987Z,10.90
2022-12-24T00:35:35.362Z,10.90
2022-12-24T00:38:03.927Z,10.80
2022-12-24T00:40:31.785Z,10.90
2022-12-24T00:42:58.780Z,10.90
2022-12-24T00:45:27.930Z,11.00
2022-12-24T00:47:54.919Z,11.00
2022-12-24T00:50:21.816Z,11.00
2022-12-24T00:52:48.721Z,11.00
2022-12-24T00:55:15.794Z,11.10
2022-12-24T00:57:42.759Z,11.10
2022-12-24T01:00:10.095Z,11.20
2022-12-24T01:02:37.269Z,11.10
2022-12-24T01:05:10.485Z,11.20
2022-12-24T01:07:38.092Z,11.10
2022-12-24T01:10:05.753Z,11.10
2022-12-24T01:12:32.907Z,11.10
2022-12-24T01:14:59.722Z,11.00
2022-12-24T01:17:26.595Z,11.10
2022-12-24T01:19:53.436Z,11.00
2022-12-24T01:22:20.391Z,11.00
2022-12-24T01:24:47.258Z,11.10
2022-12-24T01:27:14.072Z,11.00
2022-12-24T01:29:41.072Z,11.00
2022-12-24T01:32:07.848Z,11.10
2022-12-24T01:34:34.775Z,11.10
2022-12-24T01:37:01.714Z,11.00
2022-12-24T01:39:28.518Z,11.10
2022-12-24T01:42:14.191Z,11.10
2022-12-24T01:44:43.570Z,11.20
2022-12-24T01:47:22.298Z,11.10
2022-12-24T01:49:54.305Z,11.20
2022-12-24T01:52:34.828Z,11.20
2022-12-24T01:55:12.715Z,11.20
2022-12-24T01:57:46.700Z,11.20
2022-12-24T02:00:15.801Z,11.20
2022-12-24T02:02:46.375Z,11.20
2022-12-24T02:05:43.493Z,11.10
2022-12-24T02:08:11.237Z,11.20
2022-12-24T02:10:38.069Z,11.10
2022-12-24T02:13:06.263Z,11.00
2022-12-24T02:16:04.996Z,11.10
2022-12-24T02:18:38.650Z,11.00
2022-12-24T02:21:14.469Z,11.00
2022-12-24T02:24:16.370Z,11.00
2022-12-24T02:27:04.188Z,10.90
2022-12-24T02:29:52.514Z,10.90
2022-12-24T02:32:32.802Z,10.90
2022-12-24T02:35:38.618Z,10.90
2022-12-24T02:38:17.526Z,10.90
2022-12-24T02:40:56.778Z,10.90
2022-12-24T02:43:27.431Z,10.80
2022-12-24T02:46:01.152Z,10.80
2022-12-24T02:48:30.554Z,10.70
2022-12-24T02:51:03.375Z,10.90
2022-12-24T02:53:31.407Z,10.70
2022-12-24T02:56:17.758Z,10.60
2022-12-24T02:59:12.093Z,10.60
2022-12-24T03:01:56.930Z,10.80
2022-12-24T03:04:41.265Z,10.80
2022-12-24T03:07:26.330Z,10.70
2022-12-24T03:10:06.732Z,10.80
2022-12-24T03:12:46.280Z,10.80
2022-12-24T03:15:17.395Z,10.70
2022-12-24T03:17:47.830Z,10.70
2022-12-24T03:20:21.096Z,10.70
2022-12-24T03:22:48.325Z,10.80
2022-12-24T03:25:15.408Z,10.60
2022-12-24T03:27:42.650Z,10.50
2022-12-24T03:30:13.902Z,10.50
2022-12-24T03:32:40.979Z,10.50
2022-12-24T03:35:09.150Z,10.40
2022-12-24T03:37:36.082Z,10.40
2022-12-24T03:40:03.672Z,10.40
2022-12-24T03:42:30.471Z,10.30
2022-12-24T03:44:57.341Z,10.30
2022-12-24T03:47:24.195Z,10.40
2022-12-24T03:49:50.999Z,10.30
2022-12-24T03:52:17.812Z,10.10
2022-12-24T03:54:44.800Z,10.10
2022-12-24T03:57:11.580Z,10.00
2022-12-24T03:59:38.390Z,9.90
2022-12-24T04:02:05.607Z,9.90
2022-12-24T04:04:33.523Z,9.80
2022-12-24T04:07:00.344Z,9.80
2022-12-24T04:09:27.210Z,9.80
2022-12-24T04:11:54.029Z,10.00
2022-12-24T04:14:20.978Z,10.00
2022-12-24T04:16:47.939Z,10.00
2022-12-24T04:19:14.812Z,10.00
2022-12-24T04:21:41.645Z,10.10
2022-12-24T04:24:08.714Z,10.10
2022-12-24T04:26:35.698Z,10.00
2022-12-24T04:29:02.472Z,9.90
2022-12-24T04:31:29.350Z,9.80
2022-12-24T04:33:56.400Z,9.70
2022-12-24T04:36:23.357Z,9.70
2022-12-24T04:38:50.326Z,9.70
2022-12-24T04:41:23.861Z,9.50
2022-12-24T04:43:53.336Z,9.60
2022-12-24T04:46:23.243Z,9.50
2022-12-24T04:48:51.762Z,9.50
2022-12-24T04:51:19.477Z,9.40
2022-12-24T04:53:47.820Z,9.30
2022-12-24T04:56:16.729Z,9.30
2022-12-24T04:58:43.995Z,9.30
2022-12-24T05:01:25.443Z,9.30
2022-12-24T05:03:53.516Z,9.20
2022-12-24T05:06:26.965Z,9.10
2022-12-24T05:08:55.705Z,9.20
2022-12-24T05:11:22.957Z,9.10
2022-12-24T05:13:49.968Z,9.10
2022-12-24T05:16:19.124Z,9.00
2022-12-24T05:18:45.944Z,8.90
2022-12-24T05:21:22.213Z,8.80
2022-12-24T05:24:08.331Z,8.90
2022-12-24T05:26:41.549Z,8.90
2022-12-24T05:29:09.943Z,8.90
2022-12-24T05:31:36.992Z,9.00
2022-12-24T05:34:04.046Z,9.10
2022-12-24T05:36:31.197Z,9.10
2022-12-24T05:38:58.439Z,9.30
2022-12-24T05:41:25.939Z,9.40
2022-12-24T05:43:52.772Z,9.50
2022-12-24T05:46:22.154Z,9.50
2022-12-24T05:48:50.190Z,9.60
2022-12-24T05:51:19.671Z,9.70
2022-12-24T05:53:47.838Z,9.70
2022-12-24T05:56:21.488Z,9.70
2022-12-24T05:58:49.014Z,9.70
2022-12-24T06:01:16.206Z,9.70
2022-12-24T06:03:43.219Z,9.80
2022-12-24T06:06:13.786Z,9.70
2022-12-24T06:08:41.835Z,9.70
2022-12-24T06:11:12.054Z,9.70
2022-12-24T06:13:40.758Z,9.60
2022-12-24T06:16:10.703Z,9.50
2022-12-24T06:18:37.865Z,9.60
2022-12-24T06:21:05.610Z,9.50
2022-12-24T06:23:35.185Z,9.50
2022-12-24T06:26:03.630Z,9.40
2022-12-24T06:28:32.085Z,9.50
2022-12-24T06:31:02.997Z,9.40
2022-12-24T06:33:31.108Z,9.40
2022-12-24T06:35:58.012Z,9.40
2022-12-24T06:38:24.931Z,9.40
2022-12-24T06:40:52.334Z,9.40
2022-12-24T06:43:19.149Z,9.40
2022-12-24T06:45:47.620Z,9.40
2022-12-24T06:48:15.593Z,9.50
2022-12-24T06:50:43.102Z,9.50
2022-12-24T06:53:10.065Z,9.40
2022-12-24T06:55:37.491Z,9.40
2022-12-24T06:58:05.905Z,9.60
2022-12-24T07:00:32.852Z,9.70
2022-12-24T07:02:59.917Z,9.70
2022-12-24T07:05:28.289Z,9.70
2022-12-24T07:07:55.191Z,9.70
2022-12-24T07:10:22.190Z,9.80
2022-12-24T07:12:49.458Z,9.80
2022-12-24T07:15:16.858Z,9.70
2022-12-24T07:17:44.424Z,9.70
2022-12-24T07:20:14.931Z,9.80
2022-12-24T07:22:43.044Z,9.80
2022-12-24T07:25:11.207Z,9.70
2022-12-24T07:27:39.266Z,9.70
2022-12-24T07:30:06.896Z,9.70
2022-12-24T07:32:34.094Z,9.80
2022-12-24T07:35:01.196Z,9.80
2022-12-24T07:37:28.085Z,9.70
2022-12-24T07:39:54.889Z,9.80
2022-12-24T07:42:22.104Z,9.70
2022-12-24T07:44:48.932Z,9.70
2022-12-24T07:47:15.752Z,9.60
2022-12-24T07:49:42.634Z,9.70
2022-12-24T07:52:09.429Z,9.70
2022-12-24T07:54:36.185Z,9.80
2022-12-24T07:57:03.122Z,9.80
2022-12-24T07:59:29.908Z,9.70
2022-12-24T08:01:57.030Z,9.80
2022-12-24T08:04:24.058Z,9.80
2022-12-24T08:06:50.822Z,9.70
2022-12-24T08:09:17.678Z,9.70
2022-12-24T08:11:49.877Z,9.70
2022-12-24T08:14:19.601Z,9.80
2022-12-24T08:16:46.689Z,9.80
2022-12-24T08:19:13.624Z,9.90
2022-12-24T08:21:40.647Z,9.80
2022-12-24T08:24:07.551Z,9.80
2022-12-24T08:26:34.451Z,9.80
2022-12-24T08:29:02.052Z,9.70
2022-12-24T08:31:28.926Z,9.70
2022-12-24T08:33:55.947Z,9.70
2022-12-24T08:36:22.753Z,9.80
2022-12-24T08:38:49.514Z,9.70
2022-12-24T08:41:16.412Z,9.90
2022-12-24T08:43:43.258Z,9.90
2022-12-24T08:46:10.509Z,10.00
2022-12-24T08:48:37.632Z,10.00
2022-12-24T08:51:12.157Z,10.00
2022-12-24T08:53:39.834Z,10.20
2022-12-24T08:56:08.862Z,10.30
2022-12-24T08:58:37.122Z,10.40
2022-12-24T09:01:11.981Z,10.70
2022-12-24T09:03:39.044Z,11.00
2022-12-24T09:06:06.956Z,11.30
2022-12-24T09:08:34.663Z,11.10
2022-12-24T09:11:11.112Z,11.10
2022-12-24T09:13:38.540Z,11.10
2022-12-24T09:16:05.886Z,11.30
2022-12-24T09:18:33.217Z,11.40
2022-12-24T09:21:01.577Z,11.30
2022-12-24T09:23:29.398Z,11.40
2022-12-24T09:25:56.357Z,11.50
2022-12-24T09:28:23.388Z,11.70
2022-12-24T09:31:01.143Z,11.90
2022-12-24T09:33:29.671Z,11.90
2022-12-24T09:35:56.728Z,11.60
2022-12-24T09:38:23.829Z,11.60
2022-12-24T09:40:52.189Z,11.50
2022-12-24T09:43:24.601Z,11.60
2022-12-24T09:45:57.313Z,11.80
2022-12-24T09:48:30.073Z,12.00
2022-12-24T09:51:08.690Z,12.00
2022-12-24T09:54:10.941Z,12.10
2022-12-24T09:56:44.510Z,12.00
2022-12-24T09:59:22.724Z,11.90
2022-12-24T10:01:52.576Z,12.10
2022-12-24T10:04:22.859Z,12.00
2022-12-24T10:07:07.882Z,12.00
2022-12-24T10:10:00.679Z,12.10
2022-12-24T10:12:49.882Z,12.10
2022-12-24T10:15:55.386Z,12.10
2022-12-24T10:18:36.587Z,12.00
2022-12-24T10:21:34.935Z,11.90
2022-12-24T10:24:18.013Z,11.90
2022-12-24T10:27:05.220Z,11.90
2022-12-24T10:29:39.174Z,11.90
2022-12-24T10:32:09.092Z,12.00
2022-12-24T10:34:41.779Z,11.90
2022-12-24T10:37:16.401Z,11.90
2022-12-24T10:39:43.961Z,12.00
2022-12-24T10:42:13.473Z,12.00
2022-12-24T10:44:40.640Z,12.00
2022-12-24T10:47:09.580Z,12.10
2022-12-24T10:50:17.173Z,12.10
2022-12-24T10:52:46.005Z,12.00
2022-12-24T10:55:18.812Z,12.10
2022-12-24T10:57:47.075Z,12.20
2022-12-24T11:00:30.099Z,12.30
2022-12-24T11:03:33.720Z,12.30
2022-12-24T11:06:09.587Z,12.40
2022-12-24T11:08:39.581Z,12.40
2022-12-24T11:11:28.580Z,12.30
2022-12-24T11:13:58.882Z,12.20
2022-12-24T11:16:29.949Z,12.20
2022-12-24T11:19:01.253Z,12.10
2022-12-24T11:21:33.944Z,12.30
2022-12-24T11:24:28.634Z,12.20
2022-12-24T11:27:16.057Z,12.10
2022-12-24T11:29:42.791Z,12.50
2022-12-24T11:32:20.369Z,12.50
2022-12-24T11:34:47.815Z,12.60
2022-12-24T11:37:22.416Z,12.50
2022-12-24T11:39:55.428Z,12.50
2022-12-24T11:42:27.572Z,12.50
2022-12-24T11:44:56.541Z,12.50
2022-12-24T11:47:34.411Z,12.30
2022-12-24T11:50:21.359Z,12.20
2022-12-24T11:52:59.498Z,12.20
2022-12-24T11:55:46.596Z,12.20
2022-12-24T11:58:39.510Z,12.30
2022-12-24T12:01:43.317Z,12.40
2022-12-24T12:04:18.784Z,12.20
2022-12-24T12:06:55.513Z,12.20
2022-12-24T12:09:31.472Z,12.30
2022-12-24T12:12:13.429Z,12.40
2022-12-24T12:14:48.161Z,12.40
2022-12-24T12:17:30.535Z,12.30
2022-12-24T12:20:19.045Z,12.30
2022-12-24T12:22:51.884Z,12.50
2022-12-24T12:25:26.453Z,12.70
2022-12-24T12:27:56.823Z,12.60
2022-12-24T12:30:25.263Z,12.70
2022-12-24T12:33:02.011Z,12.60
2022-12-24T12:35:36.747Z,12.40
2022-12-24T12:38:11.204Z,12.50
2022-12-24T12:40:50.472Z,12.40
2022-12-24T12:43:51.405Z,12.40
2022-12-24T12:46:56.419Z,12.40
2022-12-24T12:49:57.021Z,12.50
2022-12-24T12:52:48.208Z,12.50
2022-12-24T12:55:46.757Z,12.70
2022-12-24T12:58:25.680Z,12.70
2022-12-24T13:01:15.616Z,12.80
2022-12-24T13:03:55.074Z,12.90
2022-12-24T13:06:34.066Z,12.90
2022-12-24T13:09:25.179Z,12.90
2022-12-24T13:11:58.003Z,12.90
2022-12-24T13:14:57.460Z,13.20
2022-12-24T13:17:37.385Z,13.20
2022-12-24T13:20:14.939Z,13.20
2022-12-24T13:22:54.293Z,13.10
2022-12-24T13:25:49.697Z,12.90
2022-12-24T13:28:22.572Z,12.90
2022-12-24T13:30:51.809Z,12.70
2022-12-24T13:33:37.317Z,12.50
2022-12-24T13:36:09.541Z,12.40
2022-12-24T13:38:42.725Z,12.30
2022-12-24T13:41:40.985Z,12.40
2022-12-24T13:44:14.100Z,12.40
2022-12-24T13:46:56.963Z,12.30
2022-12-24T13:49:36.305Z,12.50
2022-12-24T13:52:09.330Z,12.40
2022-12-24T13:54:37.266Z,12.60
2022-12-24T13:57:24.017Z,12.50
2022-12-24T13:59:59.685Z,12.70
2022-12-24T14:02:32.550Z,12.60
2022-12-24T14:05:03.810Z,12.60
2022-12-24T14:07:31.369Z,12.60
2022-12-24T14:09:59.739Z,12.70
2022-12-24T14:12:53.482Z,12.60
2022-12-24T14:15:45.205Z,12.30
2022-12-24T14:18:18.981Z,12.30
2022-12-24T14:20:53.068Z,12.40
2022-12-24T14:23:42.587Z,12.30
2022-12-24T14:26:15.610Z,12.20
2022-12-24T14:28:46.677Z,12.20
2022-12-24T14:31:18.954Z,12.30
2022-12-24T14:33:46.215Z,12.10
2022-12-24T14:36:18.726Z,11.90
2022-12-24T14:38:46.058Z,11.80
2022-12-24T14:41:31.766Z,11.70
2022-12-24T14:44:33.945Z,11.70
2022-12-24T14:47:17.500Z,11.60
2022-12-24T14:50:08.442Z,11.50
2022-12-24T14:53:08.269Z,11.30
2022-12-24T14:55:42.913Z,11.30
2022-12-24T14:58:32.278Z,11.30
2022-12-24T15:01:01.989Z,11.20
2022-12-24T15:03:32.049Z,11.10
2022-12-24T15:06:03.270Z,10.90
2022-12-24T15:08:38.843Z,10.90
2022-12-24T15:11:08.544Z,10.80
2022-12-24T15:13:41.749Z,10.70
2022-12-24T15:16:12.232Z,10.70
2022-12-24T15:18:52.864Z,10.70
2022-12-24T15:21:44.081Z,10.70
2022-12-24T15:24:27.716Z,10.70
2022-12-24T15:26:55.854Z,10.70
2022-12-24T15:29:28.559Z,10.60
2022-12-24T15:32:05.675Z,10.50
2022-12-24T15:34:38.331Z,10.50
2022-12-24T15:37:14.855Z,10.40
2022-12-24T15:39:41.997Z,10.50
2022-12-24T15:42:16.083Z,10.50
2022-12-24T15:45:02.276Z,10.50
2022-12-24T15:47:39.368Z,10.50
2022-12-24T15:50:16.166Z,10.50
2022-12-24T15:52:44.087Z,10.40
2022-12-24T15:55:33.440Z,10.30
2022-12-24T15:58:02.391Z,10.30
2022-12-24T16:00:32.232Z,10.10
2022-12-24T16:03:31.961Z,10.00
2022-12-24T16:06:09.610Z,9.80
2022-12-24T16:08:40.205Z,9.60
2022-12-24T16:11:23.651Z,9.40
2022-12-24T16:14:02.612Z,9.30
2022-12-24T16:16:58.506Z,9.30
2022-12-24T16:19:39.454Z,9.20
2022-12-24T16:22:26.082Z,9.00
2022-12-24T16:24:55.626Z,8.90
2022-12-24T16:27:22.556Z,8.80
2022-12-24T16:29:50.363Z,8.80
2022-12-24T16:32:34.481Z,8.70
2022-12-24T16:35:03.337Z,8.70
2022-12-24T16:37:30.409Z,8.60
2022-12-24T16:39:57.838Z,8.60
2022-12-24T16:42:43.469Z,8.50
2022-12-24T16:45:10.793Z,8.50
2022-12-24T16:47:42.869Z,8.40
2022-12-24T16:50:16.256Z,8.40
2022-12-24T16:52:43.550Z,8.30
2022-12-24T16:55:14.807Z,8.20
2022-12-24T16:57:42.535Z,8.20
2022-12-24T17:00:15.796Z,8.20
2022-12-24T17:02:42.952Z,8.20
2022-12-24T17:05:10.246Z,8.20
2022-12-24T17:07:41.353Z,8.20
2022-12-24T17:10:12.555Z,8.20
2022-12-24T17:12:39.502Z,8.10
2022-12-24T17:15:06.949Z,8.10
2022-12-24T17:17:34.027Z,8.10
2022-12-24T17:20:01.102Z,8.10
2022-12-24T17:22:28.158Z,8.00
2022-12-24T17:24:55.487Z,8.00
2022-12-24T17:27:23.033Z,7.90
2022-12-24T17:29:50.195Z,7.80
2022-12-24T17:32:17.374Z,7.80
2022-12-24T17:34:44.220Z,7.70
2022-12-24T17:37:11.083Z,7.60
2022-12-24T17:39:37.993Z,7.50
2022-12-24T17:42:05.072Z,7.40
2022-12-24T17:44:32.058Z,7.30
2022-12-24T17:46:59.027Z,7.30
2022-12-24T17:49:25.983Z,7.30
2022-12-24T17:51:53.286Z,7.30
2022-12-24T17:54:20.069Z,7.20
2022-12-24T17:56:47.515Z,7.30
2022-12-24T17:59:14.520Z,7.20
2022-12-24T18:01:41.558Z,7.20
2022-12-24T18:04:08.695Z,7.20
2022-12-24T18:06:35.556Z,7.10
2022-12-24T18:09:03.158Z,7.10
2022-12-24T18:11:34.445Z,7.00
2022-12-24T18:14:03.383Z,7.00
2022-12-24T18:16:35.512Z,7.10
2022-12-24T18:19:04.325Z,7.00
2022-12-24T18:21:32.511Z,7.00
2022-12-24T18:24:00.041Z,7.00
2022-12-24T18:26:30.670Z,7.00
2022-12-24T18:28:58.896Z,7.00
2022-12-24T18:31:26.916Z,7.00
2022-12-24T18:33:54.865Z,7.00
2022-12-24T18:36:21.844Z,7.00
2022-12-24T18:38:49.059Z,7.00
2022-12-24T18:41:19.277Z,7.00
2022-12-24T18:43:46.289Z,6.90
2022-12-24T18:46:19.027Z,6.90
2022-12-24T18:48:46.956Z,7.00
2022-12-24T18:51:14.275Z,7.00
2022-12-24T18:53:41.105Z,7.00
2022-12-24T18:56:13.635Z,7.00
2022-12-24T18:58:42.596Z,6.90
2022-12-24T19:01:31.501Z,6.90
2022-12-24T19:03:58.601Z,6.90
2022-12-24T19:06:25.691Z,6.90
2022-12-24T19:08:59.224Z,6.90
2022-12-24T19:11:28.976Z,6.90
2022-12-24T19:13:57.929Z,6.90
2022-12-24T19:16:25.203Z,6.80
2022-12-24T19:18:52.087Z,6.90
2022-12-24T19:21:19.024Z,6.90
2022-12-24T19:23:46.464Z,7.00
2022-12-24T19:26:15.335Z,7.10
2022-12-24T19:28:42.769Z,7.20
2022-12-24T19:31:15.202Z,7.30
2022-12-24T19:33:44.562Z,7.30
2022-12-24T19:36:17.340Z,7.30
2022-12-24T19:38:44.362Z,7.40
2022-12-24T19:41:14.178Z,7.60
2022-12-24T19:43:43.992Z,7.70
2022-12-24T19:46:12.895Z,7.70
2022-12-24T19:48:40.618Z,7.80
2022-12-24T19:51:11.245Z,7.90
2022-12-24T19:53:39.889Z,7.90
2022-12-24T19:56:08.722Z,7.90
2022-12-24T19:58:36.183Z,8.10
2022-12-24T20:01:20.765Z,8.00
2022-12-24T20:03:48.866Z,8.00
2022-12-24T20:06:17.338Z,8.10
2022-12-24T20:08:44.404Z,8.00
2022-12-24T20:11:13.546Z,8.00
2022-12-24T20:13:41.222Z,8.00
2022-12-24T20:16:14.363Z,8.10
2022-12-24T20:18:41.442Z,8.10
2022-12-24T20:21:11.313Z,8.10
2022-12-24T20:23:39.838Z,8.10
2022-12-24T20:26:09.130Z,8.10
2022-12-24T20:28:36.864Z,8.00
2022-12-24T20:31:21.683Z,8.00
2022-12-24T20:33:48.587Z,8.00
2022-12-24T20:36:18.317Z,7.90
2022-12-24T20:38:45.863Z,7.80
2022-12-24T20:41:14.405Z,7.80
2022-12-24T20:43:47.951Z,7.80
2022-12-24T20:46:18.400Z,7.70
2022-12-24T20:48:45.780Z,7.70
2022-12-24T20:51:23.844Z,7.60
2022-12-24T20:53:53.615Z,7.60
2022-12-24T20:56:20.771Z,7.60
2022-12-24T20:58:49.046Z,7.50
2022-12-24T21:01:19.059Z,7.50
2022-12-24T21:03:46.115Z,7.50
2022-12-24T21:06:13.926Z,7.40
2022-12-24T21:08:40.807Z,7.40
2022-12-24T21:11:26.587Z,7.40
2022-12-24T21:13:53.383Z,7.40
2022-12-24T21:16:20.251Z,7.30
2022-12-24T21:18:47.146Z,7.30
2022-12-24T21:21:14.208Z,7.20
2022-12-24T21:23:40.991Z,7.20
2022-12-24T21:26:07.851Z,7.20
2022-12-24T21:28:34.677Z,7.10
2022-12-24T21:31:01.875Z,7.10
2022-12-24T21:33:36.240Z,7.10
2022-12-24T21:36:05.099Z,7.10
2022-12-24T21:38:32.435Z,7.00
2022-12-24T21:41:01.316Z,7.00
2022-12-24T21:43:31.972Z,7.00
2022-12-24T21:45:58.908Z,7.10
2022-12-24T21:48:45.141Z,7.10
2022-12-24T21:51:11.957Z,7.00
2022-12-24T21:53:57.548Z,7.00
2022-12-24T21:56:24.586Z,7.00
2022-12-24T21:58:51.944Z,7.00
2022-12-24T22:01:19.763Z,7.10
2022-12-24T22:03:49.932Z,7.10
2022-12-24T22:06:36.011Z,7.10
2022-12-24T22:09:21.372Z,7.10
2022-12-24T22:11:53.830Z,7.10
2022-12-24T22:14:21.846Z,7.10
2022-12-24T22:16:48.944Z,7.10
2022-12-24T22:19:15.776Z,7.10
2022-12-24T22:21:42.714Z,7.20
2022-12-24T22:24:09.586Z,7.20
2022-12-24T22:26:36.349Z,7.10
2022-12-24T22:29:06.609Z,7.10
2022-12-24T22:31:33.722Z,7.00
2022-12-24T22:34:00.872Z,7.00
2022-12-24T22:36:27.680Z,6.90
2022-12-24T22:38:54.452Z,6.90
2022-12-24T22:41:21.269Z,6.80
2022-12-24T22:43:49.801Z,6.80
2022-12-24T22:46:17.852Z,6.80
2022-12-24T22:48:45.897Z,6.90
2022-12-24T22:51:18.126Z,6.90
2022-12-24T22:53:45.661Z,6.80
2022-12-24T22:56:17.283Z,6.80
2022-12-24T22:58:44.507Z,6.90
2022-12-24T23:01:11.438Z,6.90
2022-12-24T23:03:38.388Z,6.90
2022-12-24T23:06:07.302Z,6.90
2022-12-24T23:08:35.922Z,6.90
2022-12-24T23:11:08.178Z,6.80
2022-12-24T23:13:56.332Z,6.80
2022-12-24T23:16:23.818Z,6.80
2022-12-24T23:18:50.844Z,6.80
2022-12-24T23:21:17.864Z,6.80
2022-12-24T23:23:44.632Z,6.90
2022-12-24T23:26:14.865Z,6.90
2022-12-24T23:28:41.766Z,6.90
2022-12-24T23:31:09.031Z,7.00
2022-12-24T23:33:36.369Z,7.20
2022-12-24T23:36:04.035Z,7.40
2022-12-24T23:38:31.040Z,7.40
2022-12-24T23:41:00.049Z,7.40
2022-12-24T23:43:27.287Z,7.40
2022-12-24T23:45:54.805Z,7.50
2022-12-24T23:48:23.451Z,7.60
2022-12-24T23:50:50.416Z,7.60
2022-12-24T23:53:18.342Z,7.70
2022-12-24T23:55:45.841Z,7.70
2022-12-24T23:58:16.625Z,7.70
